sensor_id;sensor_type;location;lat;lon;timestamp;P1;durP1;ratioP1;P2;durP2;ratioP2
15944;SDS011;30172;48.832;8.732;2023-03-07T00:01:26;17.07;;;9.83;;
15944;SDS011;30172;48.832;8.732;2023-03-07T00:03:53;16.03;;;9.60;;
15944;SDS011;30172;48.832;8.732;2023-03-07T00:06:19;19.97;;;11.80;;
15944;SDS011;30172;48.832;8.732;2023-03-07T00:08:47;19.27;;;10.87;;
15944;SDS011;30172;48.832;8.732;2023-03-07T00:11:13;16.53;;;10.03;;
15944;SDS011;30172;48.832;8.732;2023-03-07T00:13:38;17.93;;;10.73;;
15944;SDS011;30172;48.832;8.732;2023-03-07T00:16:08;19.03;;;10.73;;
15944;SDS011;30172;48.832;8.732;2023-03-07T00:18:35;16.30;;;9.87;;
15944;SDS011;30172;48.832;8.732;2023-03-07T00:21:02;17.17;;;10.40;;
15944;SDS011;30172;48.832;8.732;2023-03-07T00:23:30;16.00;;;10.50;;
15944;SDS011;30172;48.832;8.732;2023-03-07T00:25:58;17.67;;;11.40;;
15944;SDS011;30172;48.832;8.732;2023-03-07T00:28:28;16.53;;;10.13;;
15944;SDS011;30172;48.832;8.732;2023-03-07T00:30:53;18.23;;;11.20;;
15944;SDS011;30172;48.832;8.732;2023-03-07T00:33:19;17.37;;;10.73;;
15944;SDS011;30172;48.832;8.732;2023-03-07T00:35:52;18.73;;;11.57;;
15944;SDS011;30172;48.832;8.732;2023-03-07T00:38:19;17.20;;;11.17;;
15944;SDS011;30172;48.832;8.732;2023-03-07T00:40:44;18.90;;;11.27;;
15944;SDS011;30172;48.832;8.732;2023-03-07T00:43:10;14.87;;;10.10;;
15944;SDS011;30172;48.832;8.732;2023-03-07T00:45:35;16.73;;;10.13;;
15944;SDS011;30172;48.832;8.732;2023-03-07T00:48:00;25.47;;;11.93;;
15944;SDS011;30172;48.832;8.732;2023-03-07T00:50:25;17.50;;;11.07;;
15944;SDS011;30172;48.832;8.732;2023-03-07T00:52:51;18.60;;;11.90;;
15944;SDS011;30172;48.832;8.732;2023-03-07T00:55:16;19.47;;;10.97;;
15944;SDS011;30172;48.832;8.732;2023-03-07T00:57:41;15.57;;;9.63;;
15944;SDS011;30172;48.832;8.732;2023-03-07T01:00:07;20.33;;;11.47;;
15944;SDS011;30172;48.832;8.732;2023-03-07T01:02:33;16.90;;;10.40;;
15944;SDS011;30172;48.832;8.732;2023-03-07T01:04:58;17.93;;;11.47;;
15944;SDS011;30172;48.832;8.732;2023-03-07T01:07:23;17.47;;;11.20;;
15944;SDS011;30172;48.832;8.732;2023-03-07T01:09:49;19.70;;;11.33;;
15944;SDS011;30172;48.832;8.732;2023-03-07T01:12:15;21.50;;;12.53;;
15944;SDS011;30172;48.832;8.732;2023-03-07T01:14:40;17.43;;;11.03;;
15944;SDS011;30172;48.832;8.732;2023-03-07T01:17:06;15.87;;;10.57;;
15944;SDS011;30172;48.832;8.732;2023-03-07T01:19:31;16.83;;;11.03;;
15944;SDS011;30172;48.832;8.732;2023-03-07T01:21:56;16.37;;;10.27;;
15944;SDS011;30172;48.832;8.732;2023-03-07T01:24:22;18.40;;;11.40;;
15944;SDS011;30172;48.832;8.732;2023-03-07T01:26:47;18.20;;;11.13;;
15944;SDS011;30172;48.832;8.732;2023-03-07T01:29:13;17.17;;;11.30;;
15944;SDS011;30172;48.832;8.732;2023-03-07T01:31:38;15.93;;;11.40;;
15944;SDS011;30172;48.832;8.732;2023-03-07T01:34:03;14.23;;;10.17;;
15944;SDS011;30172;48.832;8.732;2023-03-07T01:36:30;17.00;;;10.47;;
15944;SDS011;30172;48.832;8.732;2023-03-07T01:38:58;17.13;;;11.47;;
15944;SDS011;30172;48.832;8.732;2023-03-07T01:41:30;16.07;;;11.23;;
15944;SDS011;30172;48.832;8.732;2023-03-07T01:44:00;18.40;;;11.43;;
15944;SDS011;30172;48.832;8.732;2023-03-07T01:46:29;17.20;;;11.37;;
15944;SDS011;30172;48.832;8.732;2023-03-07T01:49:14;20.13;;;12.37;;
15944;SDS011;30172;48.832;8.732;2023-03-07T01:51:43;18.43;;;12.17;;
15944;SDS011;30172;48.832;8.732;2023-03-07T01:54:11;20.17;;;12.60;;
15944;SDS011;30172;48.832;8.732;2023-03-07T01:56:37;20.30;;;11.60;;
15944;SDS011;30172;48.832;8.732;2023-03-07T01:59:03;18.53;;;11.70;;
15944;SDS011;30172;48.832;8.732;2023-03-07T02:01:29;18.60;;;11.53;;
15944;SDS011;30172;48.832;8.732;2023-03-07T02:03:56;21.70;;;12.60;;
15944;SDS011;30172;48.832;8.732;2023-03-07T02:06:24;21.77;;;12.40;;
15944;SDS011;30172;48.832;8.732;2023-03-07T02:08:51;19.67;;;13.27;;
15944;SDS011;30172;48.832;8.732;2023-03-07T02:11:17;18.67;;;12.37;;
15944;SDS011;30172;48.832;8.732;2023-03-07T02:13:42;21.73;;;12.20;;
15944;SDS011;30172;48.832;8.732;2023-03-07T02:16:08;19.37;;;12.40;;
15944;SDS011;30172;48.832;8.732;2023-03-07T02:18:34;19.43;;;11.70;;
15944;SDS011;30172;48.832;8.732;2023-03-07T02:23:58;20.73;;;13.03;;
15944;SDS011;30172;48.832;8.732;2023-03-07T02:28:55;17.40;;;12.43;;
15944;SDS011;30172;48.832;8.732;2023-03-07T02:31:21;18.83;;;12.07;;
15944;SDS011;30172;48.832;8.732;2023-03-07T02:33:47;21.17;;;12.43;;
15944;SDS011;30172;48.832;8.732;2023-03-07T02:36:14;18.40;;;11.60;;
15944;SDS011;30172;48.832;8.732;2023-03-07T02:38:43;21.30;;;12.70;;
15944;SDS011;30172;48.832;8.732;2023-03-07T02:41:10;19.37;;;12.13;;
15944;SDS011;30172;48.832;8.732;2023-03-07T02:43:36;19.23;;;11.87;;
15944;SDS011;30172;48.832;8.732;2023-03-07T02:46:01;18.17;;;11.97;;
15944;SDS011;30172;48.832;8.732;2023-03-07T02:48:27;16.73;;;11.50;;
15944;SDS011;30172;48.832;8.732;2023-03-07T02:50:52;17.77;;;11.80;;
15944;SDS011;30172;48.832;8.732;2023-03-07T02:53:17;17.63;;;11.43;;
15944;SDS011;30172;48.832;8.732;2023-03-07T02:55:43;17.27;;;11.90;;
15944;SDS011;30172;48.832;8.732;2023-03-07T02:58:08;18.33;;;11.50;;
15944;SDS011;30172;48.832;8.732;2023-03-07T03:00:33;18.60;;;11.57;;
15944;SDS011;30172;48.832;8.732;2023-03-07T03:02:59;18.27;;;12.10;;
15944;SDS011;30172;48.832;8.732;2023-03-07T03:05:24;19.47;;;11.67;;
15944;SDS011;30172;48.832;8.732;2023-03-07T03:07:50;19.07;;;11.57;;
15944;SDS011;30172;48.832;8.732;2023-03-07T03:10:15;16.83;;;11.07;;
15944;SDS011;30172;48.832;8.732;2023-03-07T03:12:41;18.27;;;12.07;;
15944;SDS011;30172;48.832;8.732;2023-03-07T03:15:07;19.70;;;11.80;;
15944;SDS011;30172;48.832;8.732;2023-03-07T03:17:32;17.87;;;11.67;;
15944;SDS011;30172;48.832;8.732;2023-03-07T03:19:58;18.43;;;11.50;;
15944;SDS011;30172;48.832;8.732;2023-03-07T03:22:23;18.30;;;11.90;;
15944;SDS011;30172;48.832;8.732;2023-03-07T03:24:48;17.03;;;10.37;;
15944;SDS011;30172;48.832;8.732;2023-03-07T03:27:14;19.67;;;12.43;;
15944;SDS011;30172;48.832;8.732;2023-03-07T03:29:39;16.27;;;10.83;;
15944;SDS011;30172;48.832;8.732;2023-03-07T03:32:04;20.43;;;11.43;;
15944;SDS011;30172;48.832;8.732;2023-03-07T03:34:30;18.17;;;11.67;;
15944;SDS011;30172;48.832;8.732;2023-03-07T03:36:56;17.53;;;11.80;;
15944;SDS011;30172;48.832;8.732;2023-03-07T03:39:21;19.77;;;12.03;;
15944;SDS011;30172;48.832;8.732;2023-03-07T03:41:46;20.03;;;11.90;;
15944;SDS011;30172;48.832;8.732;2023-03-07T03:44:12;19.17;;;11.53;;
15944;SDS011;30172;48.832;8.732;2023-03-07T03:46:37;18.50;;;11.70;;
15944;SDS011;30172;48.832;8.732;2023-03-07T03:49:02;19.83;;;12.40;;
15944;SDS011;30172;48.832;8.732;2023-03-07T03:51:28;21.07;;;11.37;;
15944;SDS011;30172;48.832;8.732;2023-03-07T03:53:54;18.83;;;11.80;;
15944;SDS011;30172;48.832;8.732;2023-03-07T03:56:22;18.03;;;11.83;;
15944;SDS011;30172;48.832;8.732;2023-03-07T03:58:48;16.67;;;12.43;;
15944;SDS011;30172;48.832;8.732;2023-03-07T04:01:17;18.43;;;11.10;;
15944;SDS011;30172;48.832;8.732;2023-03-07T04:03:44;17.93;;;11.77;;
15944;SDS011;30172;48.832;8.732;2023-03-07T04:06:44;19.40;;;11.13;;
15944;SDS011;30172;48.832;8.732;2023-03-07T04:09:03;21.57;;;11.63;;
15944;SDS011;30172;48.832;8.732;2023-03-07T04:11:29;19.27;;;12.37;;
15944;SDS011;30172;48.832;8.732;2023-03-07T04:13:55;23.17;;;13.00;;
15944;SDS011;30172;48.832;8.732;2023-03-07T04:16:20;19.30;;;11.97;;
15944;SDS011;30172;48.832;8.732;2023-03-07T04:18:46;20.00;;;12.30;;
15944;SDS011;30172;48.832;8.732;2023-03-07T04:21:14;20.83;;;12.37;;
15944;SDS011;30172;48.832;8.732;2023-03-07T04:23:39;20.97;;;12.87;;
15944;SDS011;30172;48.832;8.732;2023-03-07T04:26:05;19.13;;;11.73;;
15944;SDS011;30172;48.832;8.732;2023-03-07T04:28:35;21.63;;;12.60;;
15944;SDS011;30172;48.832;8.732;2023-03-07T04:31:14;18.70;;;12.00;;
15944;SDS011;30172;48.832;8.732;2023-03-07T04:33:40;18.30;;;11.83;;
15944;SDS011;30172;48.832;8.732;2023-03-07T04:36:06;20.40;;;13.10;;
15944;SDS011;30172;48.832;8.732;2023-03-07T04:38:32;18.57;;;11.97;;
15944;SDS011;30172;48.832;8.732;2023-03-07T04:40:57;20.07;;;11.87;;
15944;SDS011;30172;48.832;8.732;2023-03-07T04:43:23;21.67;;;12.53;;
15944;SDS011;30172;48.832;8.732;2023-03-07T04:45:48;18.80;;;11.97;;
15944;SDS011;30172;48.832;8.732;2023-03-07T04:48:13;19.00;;;12.47;;
15944;SDS011;30172;48.832;8.732;2023-03-07T04:50:40;18.57;;;11.43;;
15944;SDS011;30172;48.832;8.732;2023-03-07T04:53:05;19.80;;;12.30;;
15944;SDS011;30172;48.832;8.732;2023-03-07T04:55:30;19.50;;;12.57;;
15944;SDS011;30172;48.832;8.732;2023-03-07T04:57:55;18.13;;;11.60;;
15944;SDS011;30172;48.832;8.732;2023-03-07T05:00:22;21.03;;;13.10;;
15944;SDS011;30172;48.832;8.732;2023-03-07T05:02:48;19.43;;;12.33;;
15944;SDS011;30172;48.832;8.732;2023-03-07T05:05:13;17.17;;;11.00;;
15944;SDS011;30172;48.832;8.732;2023-03-07T05:07:39;17.77;;;11.60;;
15944;SDS011;30172;48.832;8.732;2023-03-07T05:10:04;20.80;;;11.70;;
15944;SDS011;30172;48.832;8.732;2023-03-07T05:12:30;19.77;;;11.50;;
15944;SDS011;30172;48.832;8.732;2023-03-07T05:14:55;20.20;;;11.80;;
15944;SDS011;30172;48.832;8.732;2023-03-07T05:17:20;20.30;;;11.67;;
15944;SDS011;30172;48.832;8.732;2023-03-07T05:19:46;17.07;;;10.23;;
15944;SDS011;30172;48.832;8.732;2023-03-07T05:22:11;18.37;;;11.30;;
15944;SDS011;30172;48.832;8.732;2023-03-07T05:24:36;18.90;;;12.17;;
15944;SDS011;30172;48.832;8.732;2023-03-07T05:27:02;16.00;;;10.60;;
15944;SDS011;30172;48.832;8.732;2023-03-07T05:29:27;17.27;;;11.33;;
15944;SDS011;30172;48.832;8.732;2023-03-07T05:31:53;16.57;;;10.73;;
15944;SDS011;30172;48.832;8.732;2023-03-07T05:34:19;14.90;;;10.43;;
15944;SDS011;30172;48.832;8.732;2023-03-07T05:36:44;17.33;;;11.43;;
15944;SDS011;30172;48.832;8.732;2023-03-07T05:39:09;16.87;;;10.70;;
15944;SDS011;30172;48.832;8.732;2023-03-07T05:41:35;18.23;;;11.33;;
15944;SDS011;30172;48.832;8.732;2023-03-07T05:44:00;19.07;;;10.70;;
15944;SDS011;30172;48.832;8.732;2023-03-07T05:46:26;17.73;;;10.47;;
15944;SDS011;30172;48.832;8.732;2023-03-07T05:48:51;15.60;;;9.97;;
15944;SDS011;30172;48.832;8.732;2023-03-07T05:51:17;16.60;;;10.27;;
15944;SDS011;30172;48.832;8.732;2023-03-07T05:53:42;19.40;;;10.47;;
15944;SDS011;30172;48.832;8.732;2023-03-07T05:56:07;16.73;;;9.90;;
15944;SDS011;30172;48.832;8.732;2023-03-07T05:58:33;15.60;;;10.43;;
15944;SDS011;30172;48.832;8.732;2023-03-07T06:01:00;15.37;;;9.43;;
15944;SDS011;30172;48.832;8.732;2023-03-07T06:03:26;17.10;;;10.20;;
15944;SDS011;30172;48.832;8.732;2023-03-07T06:05:51;17.90;;;10.87;;
15944;SDS011;30172;48.832;8.732;2023-03-07T06:08:16;16.33;;;10.50;;
15944;SDS011;30172;48.832;8.732;2023-03-07T06:10:42;15.37;;;10.60;;
15944;SDS011;30172;48.832;8.732;2023-03-07T06:13:14;15.83;;;10.33;;
15944;SDS011;30172;48.832;8.732;2023-03-07T06:15:40;18.27;;;10.57;;
15944;SDS011;30172;48.832;8.732;2023-03-07T06:18:06;15.30;;;9.60;;
15944;SDS011;30172;48.832;8.732;2023-03-07T06:20:31;18.10;;;10.10;;
15944;SDS011;30172;48.832;8.732;2023-03-07T06:22:56;18.13;;;10.10;;
15944;SDS011;30172;48.832;8.732;2023-03-07T06:25:22;16.93;;;11.00;;
15944;SDS011;30172;48.832;8.732;2023-03-07T06:27:47;14.93;;;9.80;;
15944;SDS011;30172;48.832;8.732;2023-03-07T06:30:12;16.40;;;10.33;;
15944;SDS011;30172;48.832;8.732;2023-03-07T06:32:38;16.70;;;9.63;;
15944;SDS011;30172;48.832;8.732;2023-03-07T06:35:03;14.03;;;9.37;;
15944;SDS011;30172;48.832;8.732;2023-03-07T06:37:29;14.43;;;9.03;;
15944;SDS011;30172;48.832;8.732;2023-03-07T06:39:54;14.17;;;9.30;;
15944;SDS011;30172;48.832;8.732;2023-03-07T06:42:20;15.73;;;10.20;;
15944;SDS011;30172;48.832;8.732;2023-03-07T06:44:45;14.87;;;10.00;;
15944;SDS011;30172;48.832;8.732;2023-03-07T06:47:10;16.50;;;10.80;;
15944;SDS011;30172;48.832;8.732;2023-03-07T06:49:35;19.63;;;10.70;;
15944;SDS011;30172;48.832;8.732;2023-03-07T06:52:01;19.33;;;10.93;;
15944;SDS011;30172;48.832;8.732;2023-03-07T06:54:26;13.50;;;9.40;;
15944;SDS011;30172;48.832;8.732;2023-03-07T06:56:51;17.50;;;10.30;;
15944;SDS011;30172;48.832;8.732;2023-03-07T06:59:17;14.57;;;10.00;;
15944;SDS011;30172;48.832;8.732;2023-03-07T07:01:43;13.97;;;9.27;;
15944;SDS011;30172;48.832;8.732;2023-03-07T07:04:09;15.40;;;9.87;;
15944;SDS011;30172;48.832;8.732;2023-03-07T07:06:35;16.63;;;9.90;;
15944;SDS011;30172;48.832;8.732;2023-03-07T07:09:00;15.37;;;9.80;;
15944;SDS011;30172;48.832;8.732;2023-03-07T07:11:26;14.83;;;9.47;;
15944;SDS011;30172;48.832;8.732;2023-03-07T07:13:51;14.80;;;10.10;;
15944;SDS011;30172;48.832;8.732;2023-03-07T07:16:17;17.00;;;10.07;;
15944;SDS011;30172;48.832;8.732;2023-03-07T07:18:42;15.10;;;9.17;;
15944;SDS011;30172;48.832;8.732;2023-03-07T07:21:08;13.37;;;8.67;;
15944;SDS011;30172;48.832;8.732;2023-03-07T07:23:33;12.80;;;8.60;;
15944;SDS011;30172;48.832;8.732;2023-03-07T07:25:59;13.27;;;9.30;;
15944;SDS011;30172;48.832;8.732;2023-03-07T07:28:25;14.17;;;8.90;;
15944;SDS011;30172;48.832;8.732;2023-03-07T07:30:50;11.93;;;8.03;;
15944;SDS011;30172;48.832;8.732;2023-03-07T07:33:16;11.93;;;8.93;;
15944;SDS011;30172;48.832;8.732;2023-03-07T07:35:42;13.70;;;8.80;;
15944;SDS011;30172;48.832;8.732;2023-03-07T07:38:07;14.33;;;9.13;;
15944;SDS011;30172;48.832;8.732;2023-03-07T07:40:33;11.60;;;8.33;;
15944;SDS011;30172;48.832;8.732;2023-03-07T07:42:58;11.87;;;7.80;;
15944;SDS011;30172;48.832;8.732;2023-03-07T07:45:23;11.87;;;8.00;;
15944;SDS011;30172;48.832;8.732;2023-03-07T07:47:49;12.77;;;8.33;;
15944;SDS011;30172;48.832;8.732;2023-03-07T07:50:15;11.83;;;8.30;;
15944;SDS011;30172;48.832;8.732;2023-03-07T07:52:41;12.67;;;8.87;;
15944;SDS011;30172;48.832;8.732;2023-03-07T07:55:07;14.33;;;8.73;;
15944;SDS011;30172;48.832;8.732;2023-03-07T07:57:33;11.73;;;7.70;;
15944;SDS011;30172;48.832;8.732;2023-03-07T07:59:58;11.60;;;7.73;;
15944;SDS011;30172;48.832;8.732;2023-03-07T08:02:23;12.80;;;7.40;;
15944;SDS011;30172;48.832;8.732;2023-03-07T08:04:49;12.27;;;8.17;;
15944;SDS011;30172;48.832;8.732;2023-03-07T08:07:14;11.97;;;7.53;;
15944;SDS011;30172;48.832;8.732;2023-03-07T08:09:40;10.77;;;8.00;;
15944;SDS011;30172;48.832;8.732;2023-03-07T08:12:05;12.03;;;8.60;;
15944;SDS011;30172;48.832;8.732;2023-03-07T08:14:32;12.07;;;7.87;;
15944;SDS011;30172;48.832;8.732;2023-03-07T08:16:57;12.33;;;7.90;;
15944;SDS011;30172;48.832;8.732;2023-03-07T08:19:23;15.67;;;8.17;;
15944;SDS011;30172;48.832;8.732;2023-03-07T08:21:48;13.40;;;8.70;;
15944;SDS011;30172;48.832;8.732;2023-03-07T08:24:13;12.93;;;8.33;;
15944;SDS011;30172;48.832;8.732;2023-03-07T08:26:39;12.03;;;8.13;;
15944;SDS011;30172;48.832;8.732;2023-03-07T08:29:04;11.10;;;8.40;;
15944;SDS011;30172;48.832;8.732;2023-03-07T08:31:29;12.20;;;8.23;;
15944;SDS011;30172;48.832;8.732;2023-03-07T08:33:55;13.43;;;7.17;;
15944;SDS011;30172;48.832;8.732;2023-03-07T08:36:20;11.50;;;7.20;;
15944;SDS011;30172;48.832;8.732;2023-03-07T08:38:49;9.70;;;6.90;;
15944;SDS011;30172;48.832;8.732;2023-03-07T08:41:15;11.50;;;6.87;;
15944;SDS011;30172;48.832;8.732;2023-03-07T08:43:41;15.77;;;8.77;;
15944;SDS011;30172;48.832;8.732;2023-03-07T08:46:06;14.13;;;8.23;;
15944;SDS011;30172;48.832;8.732;2023-03-07T08:48:31;9.90;;;7.47;;
15944;SDS011;30172;48.832;8.732;2023-03-07T08:51:01;9.77;;;7.43;;
15944;SDS011;30172;48.832;8.732;2023-03-07T08:53:28;12.60;;;7.33;;
15944;SDS011;30172;48.832;8.732;2023-03-07T08:55:53;10.73;;;6.70;;
15944;SDS011;30172;48.832;8.732;2023-03-07T08:58:19;9.93;;;6.50;;
15944;SDS011;30172;48.832;8.732;2023-03-07T09:00:44;10.67;;;7.50;;
15944;SDS011;30172;48.832;8.732;2023-03-07T09:03:09;8.83;;;6.40;;
15944;SDS011;30172;48.832;8.732;2023-03-07T09:05:35;9.93;;;6.60;;
15944;SDS011;30172;48.832;8.732;2023-03-07T09:08:02;10.33;;;6.43;;
15944;SDS011;30172;48.832;8.732;2023-03-07T09:10:28;8.30;;;6.20;;
15944;SDS011;30172;48.832;8.732;2023-03-07T09:12:53;11.73;;;6.93;;
15944;SDS011;30172;48.832;8.732;2023-03-07T09:15:19;8.60;;;6.80;;
15944;SDS011;30172;48.832;8.732;2023-03-07T09:17:45;9.87;;;6.60;;
15944;SDS011;30172;48.832;8.732;2023-03-07T09:20:10;9.37;;;6.70;;
15944;SDS011;30172;48.832;8.732;2023-03-07T09:22:36;7.97;;;5.60;;
15944;SDS011;30172;48.832;8.732;2023-03-07T09:25:02;8.53;;;6.00;;
15944;SDS011;30172;48.832;8.732;2023-03-07T09:27:28;9.97;;;5.83;;
15944;SDS011;30172;48.832;8.732;2023-03-07T09:29:53;9.23;;;7.07;;
15944;SDS011;30172;48.832;8.732;2023-03-07T09:32:18;7.03;;;5.27;;
15944;SDS011;30172;48.832;8.732;2023-03-07T09:34:44;9.00;;;6.10;;
15944;SDS011;30172;48.832;8.732;2023-03-07T09:37:09;10.37;;;6.40;;
15944;SDS011;30172;48.832;8.732;2023-03-07T09:39:34;9.83;;;5.83;;
15944;SDS011;30172;48.832;8.732;2023-03-07T09:53:22;10.27;;;6.30;;
15944;SDS011;30172;48.832;8.732;2023-03-07T09:55:59;8.23;;;5.23;;
15944;SDS011;30172;48.832;8.732;2023-03-07T09:58:27;8.73;;;5.80;;
15944;SDS011;30172;48.832;8.732;2023-03-07T10:00:56;8.33;;;5.70;;
15944;SDS011;30172;48.832;8.732;2023-03-07T10:06:31;7.00;;;5.30;;
15944;SDS011;30172;48.832;8.732;2023-03-07T10:08:59;6.13;;;4.97;;
15944;SDS011;30172;48.832;8.732;2023-03-07T10:27:26;10.13;;;6.67;;
15944;SDS011;30172;48.832;8.732;2023-03-07T10:29:54;9.33;;;6.60;;
15944;SDS011;30172;48.832;8.732;2023-03-07T10:32:22;8.90;;;6.43;;
15944;SDS011;30172;48.832;8.732;2023-03-07T10:34:56;9.30;;;6.17;;
15944;SDS011;30172;48.832;8.732;2023-03-07T10:37:29;11.60;;;6.40;;
15944;SDS011;30172;48.832;8.732;2023-03-07T10:40:05;10.20;;;6.60;;
15944;SDS011;30172;48.832;8.732;2023-03-07T10:42:34;10.17;;;6.90;;
15944;SDS011;30172;48.832;8.732;2023-03-07T10:45:00;7.43;;;5.40;;
15944;SDS011;30172;48.832;8.732;2023-03-07T10:47:26;8.73;;;5.80;;
15944;SDS011;30172;48.832;8.732;2023-03-07T10:50:07;8.73;;;6.23;;
15944;SDS011;30172;48.832;8.732;2023-03-07T10:52:41;9.87;;;6.40;;
15944;SDS011;30172;48.832;8.732;2023-03-07T11:00:43;10.53;;;5.87;;
15944;SDS011;30172;48.832;8.732;2023-03-07T11:06:23;7.57;;;5.87;;
15944;SDS011;30172;48.832;8.732;2023-03-07T11:08:51;9.07;;;6.00;;
15944;SDS011;30172;48.832;8.732;2023-03-07T11:11:23;7.57;;;5.40;;
15944;SDS011;30172;48.832;8.732;2023-03-07T11:16:38;9.10;;;6.17;;
15944;SDS011;30172;48.832;8.732;2023-03-07T11:22:00;8.47;;;6.10;;
15944;SDS011;30172;48.832;8.732;2023-03-07T11:24:37;8.27;;;5.83;;
15944;SDS011;30172;48.832;8.732;2023-03-07T11:27:03;10.17;;;5.93;;
15944;SDS011;30172;48.832;8.732;2023-03-07T11:29:29;11.03;;;6.40;;
15944;SDS011;30172;48.832;8.732;2023-03-07T11:32:16;8.60;;;5.90;;
15944;SDS011;30172;48.832;8.732;2023-03-07T11:37:32;9.47;;;5.63;;
15944;SDS011;30172;48.832;8.732;2023-03-07T11:45:37;7.97;;;5.37;;
15944;SDS011;30172;48.832;8.732;2023-03-07T11:50:41;8.47;;;5.33;;
15944;SDS011;30172;48.832;8.732;2023-03-07T11:55:59;8.03;;;5.53;;
15944;SDS011;30172;48.832;8.732;2023-03-07T11:58:35;8.60;;;6.30;;
15944;SDS011;30172;48.832;8.732;2023-03-07T12:07:01;8.27;;;5.30;;
15944;SDS011;30172;48.832;8.732;2023-03-07T12:09:32;7.57;;;5.20;;
15944;SDS011;30172;48.832;8.732;2023-03-07T12:14:54;8.00;;;5.60;;
15944;SDS011;30172;48.832;8.732;2023-03-07T12:20:13;8.50;;;5.80;;
15944;SDS011;30172;48.832;8.732;2023-03-07T12:22:57;6.70;;;4.70;;
15944;SDS011;30172;48.832;8.732;2023-03-07T12:28:32;7.47;;;4.53;;
15944;SDS011;30172;48.832;8.732;2023-03-07T12:36:20;5.97;;;4.13;;
15944;SDS011;30172;48.832;8.732;2023-03-07T12:41:51;6.50;;;4.23;;
15944;SDS011;30172;48.832;8.732;2023-03-07T12:44:35;7.60;;;4.83;;
15944;SDS011;30172;48.832;8.732;2023-03-07T12:49:40;6.40;;;3.53;;
15944;SDS011;30172;48.832;8.732;2023-03-07T12:55:15;4.70;;;3.40;;
15944;SDS011;30172;48.832;8.732;2023-03-07T13:01:01;3.83;;;3.17;;
15944;SDS011;30172;48.832;8.732;2023-03-07T13:03:33;5.90;;;3.70;;
15944;SDS011;30172;48.832;8.732;2023-03-07T13:06:03;4.30;;;3.33;;
15944;SDS011;30172;48.832;8.732;2023-03-07T13:08:30;3.97;;;3.40;;
15944;SDS011;30172;48.832;8.732;2023-03-07T13:10:55;6.03;;;3.60;;
15944;SDS011;30172;48.832;8.732;2023-03-07T13:16:04;5.07;;;3.63;;
15944;SDS011;30172;48.832;8.732;2023-03-07T13:18:31;5.17;;;3.07;;
15944;SDS011;30172;48.832;8.732;2023-03-07T13:21:09;3.80;;;3.40;;
15944;SDS011;30172;48.832;8.732;2023-03-07T13:23:41;5.17;;;4.07;;
15944;SDS011;30172;48.832;8.732;2023-03-07T13:26:08;4.53;;;3.53;;
15944;SDS011;30172;48.832;8.732;2023-03-07T13:28:36;5.90;;;3.50;;
15944;SDS011;30172;48.832;8.732;2023-03-07T13:31:10;6.80;;;3.87;;
15944;SDS011;30172;48.832;8.732;2023-03-07T13:33:36;6.33;;;3.70;;
15944;SDS011;30172;48.832;8.732;2023-03-07T13:36:01;4.70;;;4.00;;
15944;SDS011;30172;48.832;8.732;2023-03-07T13:39:00;6.77;;;4.00;;
15944;SDS011;30172;48.832;8.732;2023-03-07T13:41:41;6.43;;;4.10;;
15944;SDS011;30172;48.832;8.732;2023-03-07T13:44:26;5.83;;;3.77;;
15944;SDS011;30172;48.832;8.732;2023-03-07T13:47:01;5.20;;;3.93;;
15944;SDS011;30172;48.832;8.732;2023-03-07T13:49:35;6.97;;;4.30;;
15944;SDS011;30172;48.832;8.732;2023-03-07T13:52:21;7.23;;;3.77;;
15944;SDS011;30172;48.832;8.732;2023-03-07T13:54:48;6.47;;;4.03;;
15944;SDS011;30172;48.832;8.732;2023-03-07T13:57:15;6.23;;;4.03;;
15944;SDS011;30172;48.832;8.732;2023-03-07T13:59:45;5.03;;;3.80;;
15944;SDS011;30172;48.832;8.732;2023-03-07T14:02:11;6.20;;;4.00;;
15944;SDS011;30172;48.832;8.732;2023-03-07T14:04:48;5.00;;;3.90;;
15944;SDS011;30172;48.832;8.732;2023-03-07T14:07:22;7.10;;;4.03;;
15944;SDS011;30172;48.832;8.732;2023-03-07T14:09:51;7.67;;;4.37;;
15944;SDS011;30172;48.832;8.732;2023-03-07T14:21:03;7.27;;;4.40;;
15944;SDS011;30172;48.832;8.732;2023-03-07T14:25:45;6.47;;;4.50;;
15944;SDS011;30172;48.832;8.732;2023-03-07T14:28:20;6.93;;;4.37;;
15944;SDS011;30172;48.832;8.732;2023-03-07T14:30:54;7.53;;;4.93;;
15944;SDS011;30172;48.832;8.732;2023-03-07T14:33:28;7.17;;;4.10;;
15944;SDS011;30172;48.832;8.732;2023-03-07T14:35:54;5.90;;;4.87;;
15944;SDS011;30172;48.832;8.732;2023-03-07T14:38:21;6.40;;;5.30;;
15944;SDS011;30172;48.832;8.732;2023-03-07T14:41:01;6.87;;;4.17;;
15944;SDS011;30172;48.832;8.732;2023-03-07T14:48:40;6.83;;;5.10;;
15944;SDS011;30172;48.832;8.732;2023-03-07T14:51:14;7.00;;;4.60;;
15944;SDS011;30172;48.832;8.732;2023-03-07T14:53:42;6.47;;;4.57;;
15944;SDS011;30172;48.832;8.732;2023-03-07T14:56:08;8.00;;;4.90;;
15944;SDS011;30172;48.832;8.732;2023-03-07T14:58:35;7.83;;;4.87;;
15944;SDS011;30172;48.832;8.732;2023-03-07T15:01:13;8.13;;;4.63;;
15944;SDS011;30172;48.832;8.732;2023-03-07T15:03:44;7.87;;;5.70;;
15944;SDS011;30172;48.832;8.732;2023-03-07T15:06:15;8.60;;;5.13;;
15944;SDS011;30172;48.832;8.732;2023-03-07T15:08:43;9.67;;;4.87;;
15944;SDS011;30172;48.832;8.732;2023-03-07T15:13:50;9.93;;;5.50;;
15944;SDS011;30172;48.832;8.732;2023-03-07T15:16:32;8.43;;;5.47;;
15944;SDS011;30172;48.832;8.732;2023-03-07T15:19:07;7.67;;;5.80;;
15944;SDS011;30172;48.832;8.732;2023-03-07T15:21:39;6.77;;;4.90;;
15944;SDS011;30172;48.832;8.732;2023-03-07T15:27:02;7.70;;;5.40;;
15944;SDS011;30172;48.832;8.732;2023-03-07T15:29:30;7.60;;;5.53;;
15944;SDS011;30172;48.832;8.732;2023-03-07T15:32:00;8.17;;;4.67;;
15944;SDS011;30172;48.832;8.732;2023-03-07T15:34:28;8.90;;;5.50;;
15944;SDS011;30172;48.832;8.732;2023-03-07T15:42:50;10.90;;;6.43;;
15944;SDS011;30172;48.832;8.732;2023-03-07T15:45:33;7.60;;;5.30;;
15944;SDS011;30172;48.832;8.732;2023-03-07T15:50:57;7.80;;;6.03;;
15944;SDS011;30172;48.832;8.732;2023-03-07T15:53:24;9.17;;;6.13;;
15944;SDS011;30172;48.832;8.732;2023-03-07T15:56:02;9.47;;;6.13;;
15944;SDS011;30172;48.832;8.732;2023-03-07T15:58:29;9.53;;;6.13;;
15944;SDS011;30172;48.832;8.732;2023-03-07T16:01:16;8.97;;;5.90;;
15944;SDS011;30172;48.832;8.732;2023-03-07T16:03:52;12.80;;;6.93;;
15944;SDS011;30172;48.832;8.732;2023-03-07T16:09:01;10.37;;;5.87;;
15944;SDS011;30172;48.832;8.732;2023-03-07T16:11:27;7.43;;;5.30;;
15944;SDS011;30172;48.832;8.732;2023-03-07T16:13:52;8.20;;;5.97;;
15944;SDS011;30172;48.832;8.732;2023-03-07T16:18:46;6.20;;;4.93;;
15944;SDS011;30172;48.832;8.732;2023-03-07T16:21:12;10.77;;;5.37;;
15944;SDS011;30172;48.832;8.732;2023-03-07T16:23:38;8.67;;;5.73;;
15944;SDS011;30172;48.832;8.732;2023-03-07T16:26:04;8.13;;;5.90;;
15944;SDS011;30172;48.832;8.732;2023-03-07T16:28:30;8.10;;;5.47;;
15944;SDS011;30172;48.832;8.732;2023-03-07T16:30:56;9.90;;;5.60;;
15944;SDS011;30172;48.832;8.732;2023-03-07T16:33:21;9.03;;;6.33;;
15944;SDS011;30172;48.832;8.732;2023-03-07T16:35:47;8.47;;;5.40;;
15944;SDS011;30172;48.832;8.732;2023-03-07T16:38:12;7.50;;;5.20;;
15944;SDS011;30172;48.832;8.732;2023-03-07T16:40:42;9.20;;;6.10;;
15944;SDS011;30172;48.832;8.732;2023-03-07T16:45:56;7.87;;;5.33;;
15944;SDS011;30172;48.832;8.732;2023-03-07T16:48:22;8.37;;;5.60;;
15944;SDS011;30172;48.832;8.732;2023-03-07T16:50:48;7.27;;;4.60;;
15944;SDS011;30172;48.832;8.732;2023-03-07T16:53:13;9.87;;;5.73;;